Time;durP1;ratioP1;P1;durP2;ratioP2;P2;SDS_P1;SDS_P2;PMS_P1;PMS_P2;Temp;Humidity;BMP_temperature;BMP_pressure;BME280_temperature;BME280_humidity;BME280_pressure;Samples;Min_cycle;Max_cycle;Signal;HPM_P1;HPM_P2
2023/08/02 00:01:47;;;;;;;9.77;6.65;;;20.70;86.40;;;;;;5009217;28;20038;-61
2023/08/02 00:04:13;;;;;;;9.32;6.22;;;20.60;86.50;;;;;;5027142;28;20036;-60
2023/08/02 00:06:39;;;;;;;7.93;6.30;;;20.60;86.60;;;;;;5025809;28;20093;-61
2023/08/02 00:09:04;;;;;;;7.47;6.35;;;20.60;86.70;;;;;;5026846;28;20098;-60
2023/08/02 00:11:30;;;;;;;8.35;5.90;;;20.60;86.70;;;;;;5027239;28;20094;-61
2023/08/02 00:13:55;;;;;;;6.70;6.03;;;20.60;86.80;;;;;;5025601;28;20049;-61
2023/08/02 00:16:21;;;;;;;6.78;6.10;;;20.60;86.80;;;;;;5026961;28;20128;-60
2023/08/02 00:18:46;;;;;;;8.13;5.85;;;20.60;86.80;;;;;;5026827;28;20026;-60
2023/08/02 00:21:12;;;;;;;7.07;5.93;;;20.60;86.90;;;;;;5009201;28;20079;-60
2023/08/02 00:23:37;;;;;;;8.18;6.53;;;20.60;86.90;;;;;;5009102;28;20030;-60
2023/08/02 00:26:03;;;;;;;8.25;6.38;;;20.50;86.90;;;;;;5026741;28;20030;-61
2023/08/02 00:28:29;;;;;;;7.60;6.60;;;20.50;86.90;;;;;;5009095;28;20022;-61
2023/08/02 00:30:54;;;;;;;7.28;6.38;;;20.50;87.00;;;;;;5026735;28;20092;-60
2023/08/02 00:33:20;;;;;;;9.13;6.88;;;20.50;87.00;;;;;;5026733;28;20033;-61
2023/08/02 00:35:46;;;;;;;8.52;6.85;;;20.50;87.70;;;;;;5026259;28;20046;-61
2023/08/02 00:38:11;;;;;;;7.45;6.75;;;20.50;87.10;;;;;;5025269;28;20033;-59
2023/08/02 00:40:37;;;;;;;9.82;6.60;;;20.50;87.10;;;;;;5025336;28;20366;-61
2023/08/02 00:43:03;;;;;;;7.57;6.72;;;20.50;87.10;;;;;;5027137;28;20030;-61
2023/08/02 00:45:29;;;;;;;9.55;6.60;;;20.40;87.10;;;;;;5024028;28;20037;-60
2023/08/02 00:47:56;;;;;;;7.18;6.47;;;20.40;87.10;;;;;;5040592;28;20036;-60
2023/08/02 00:50:22;;;;;;;9.18;6.97;;;20.40;87.20;;;;;;5025070;28;20040;-60
2023/08/02 00:52:47;;;;;;;9.45;6.53;;;20.40;87.20;;;;;;5009165;28;20359;-61
2023/08/02 00:55:13;;;;;;;9.07;6.70;;;20.40;87.30;;;;;;5008369;28;20354;-61
2023/08/02 00:57:38;;;;;;;8.00;6.65;;;20.40;87.40;;;;;;5024771;28;20137;-60
2023/08/02 01:00:05;;;;;;;11.45;6.38;;;20.30;87.50;;;;;;5007409;28;20026;-61
2023/08/02 01:02:31;;;;;;;9.18;6.68;;;20.30;87.50;;;;;;5024609;28;20060;-60
2023/08/02 01:04:56;;;;;;;8.15;6.03;;;20.30;87.60;;;;;;5024339;28;20057;-61
2023/08/02 01:07:31;;;;;;;9.45;7.07;;;20.30;87.70;;;;;;5025034;28;20026;-61
2023/08/02 01:10:06;;;;;;;11.77;7.00;;;20.20;87.70;;;;;;5025002;28;20037;-61
2023/08/02 01:12:32;;;;;;;;;;;20.20;87.70;;;;;;5021592;28;20013;-59
2023/08/02 01:14:58;;;;;;;;;;;20.20;87.70;;;;;;5024248;28;19989;-60
2023/08/02 01:17:24;;;;;;;7.70;6.55;;;20.20;87.80;;;;;;5024142;28;20253;-60
2023/08/02 01:19:50;;;;;;;8.20;6.60;;;20.20;87.80;;;;;;5024577;28;20081;-60
2023/08/02 01:22:16;;;;;;;8.70;6.78;;;20.20;87.90;;;;;;5025210;28;20038;-60
2023/08/02 01:24:41;;;;;;;7.63;6.60;;;20.20;87.90;;;;;;5042800;28;20046;-60
2023/08/02 01:27:17;;;;;;;8.95;6.80;;;20.20;88.00;;;;;;5024804;28;20112;-60
2023/08/02 01:29:47;;;;;;;;;;;20.20;87.90;;;;;;5024770;28;20049;-59
2023/08/02 01:32:13;;;;;;;11.05;7.50;;;20.20;87.90;;;;;;5023942;28;19924;-60
2023/08/02 01:34:39;;;;;;;7.60;6.90;;;20.20;87.90;;;;;;5024349;28;20041;-61
2023/08/02 01:37:05;;;;;;;10.43;7.78;;;20.20;88.00;;;;;;5024302;28;20089;-60
2023/08/02 01:39:30;;;;;;;7.88;7.07;;;20.20;88.00;;;;;;5025463;28;20442;-60
2023/08/02 01:41:56;;;;;;;8.63;7.50;;;20.10;88.10;;;;;;5024201;28;20050;-61
2023/08/02 01:44:21;;;;;;;7.50;6.72;;;20.10;88.20;;;;;;5024066;28;20472;-60
2023/08/02 01:46:47;;;;;;;7.53;6.72;;;20.10;88.20;;;;;;5025422;28;20354;-61
2023/08/02 01:49:12;;;;;;;9.18;7.50;;;20.10;88.30;;;;;;5023540;28;20351;-60
2023/08/02 01:51:38;;;;;;;7.80;7.03;;;20.10;88.30;;;;;;5023809;28;20089;-60
2023/08/02 01:54:03;;;;;;;8.75;6.80;;;20.10;88.30;;;;;;5024112;28;20034;-60
2023/08/02 01:56:29;;;;;;;9.10;6.68;;;20.00;88.30;;;;;;5025220;28;20034;-60
2023/08/02 01:58:54;;;;;;;7.15;6.45;;;20.00;88.40;;;;;;5024039;28;20128;-60
2023/08/02 02:01:20;;;;;;;9.77;7.28;;;20.00;88.40;;;;;;5020374;28;20034;-61
2023/08/02 02:03:46;;;;;;;9.38;7.35;;;20.00;88.50;;;;;;5036665;28;20038;-60
2023/08/02 02:06:11;;;;;;;8.40;6.85;;;20.00;88.50;;;;;;5005485;28;20093;-60
2023/08/02 02:08:37;;;;;;;8.65;7.15;;;20.00;88.50;;;;;;5036864;28;20026;-61
2023/08/02 02:11:04;;;;;;;7.78;6.88;;;20.00;88.50;;;;;;5020289;28;20042;-60
2023/08/02 02:13:29;;;;;;;7.60;6.82;;;20.00;88.50;;;;;;5005388;28;20022;-60
2023/08/02 02:15:55;;;;;;;7.63;6.80;;;20.00;88.50;;;;;;5020245;28;20061;-60
2023/08/02 02:18:20;;;;;;;11.20;6.82;;;20.00;88.50;;;;;;5020263;28;20030;-61
2023/08/02 02:20:46;;;;;;;8.70;6.82;;;20.00;88.60;;;;;;5004949;28;20046;-61
2023/08/02 02:23:11;;;;;;;8.07;6.60;;;20.00;88.70;;;;;;5020234;28;20026;-60
2023/08/02 02:25:37;;;;;;;7.63;6.85;;;20.00;88.70;;;;;;5020149;28;20039;-61
2023/08/02 02:28:03;;;;;;;7.85;7.05;;;20.00;88.60;;;;;;5036562;28;20096;-60
2023/08/02 02:30:29;;;;;;;8.32;7.43;;;20.00;88.60;;;;;;5004495;28;20113;-61
2023/08/02 02:32:54;;;;;;;8.95;6.88;;;20.00;88.60;;;;;;5036575;28;20375;-61
2023/08/02 02:35:20;;;;;;;9.00;7.18;;;20.00;88.70;;;;;;5020043;28;20029;-61
2023/08/02 02:37:45;;;;;;;7.43;6.72;;;19.90;88.80;;;;;;5019951;28;20053;-61
2023/08/02 02:40:11;;;;;;;8.55;6.97;;;19.90;88.90;;;;;;5036450;28;20081;-60
2023/08/02 02:42:38;;;;;;;9.25;6.78;;;19.90;89.00;;;;;;5004894;28;20386;-60
2023/08/02 02:45:05;;;;;;;8.65;6.90;;;19.90;89.00;;;;;;5004500;28;20491;-60
2023/08/02 02:47:30;;;;;;;13.05;9.65;;;19.90;89.10;;;;;;5004827;28;20043;-61
2023/08/02 02:49:56;;;;;;;13.57;9.10;;;19.90;89.10;;;;;;5019811;28;20034;-60
2023/08/02 02:52:23;;;;;;;11.57;8.50;;;19.90;89.20;;;;;;5036216;28;20078;-60
2023/08/02 02:54:48;;;;;;;10.48;8.35;;;19.90;89.70;;;;;;5035839;28;20027;-60
2023/08/02 02:57:15;;;;;;;12.07;8.75;;;19.90;89.50;;;;;;5036384;28;20054;-60
2023/08/02 02:59:40;;;;;;;31.83;9.85;;;19.90;89.70;;;;;;5025904;28;20036;-60
2023/08/02 03:02:06;;;;;;;11.38;8.90;;;19.90;89.60;;;;;;5021538;28;20093;-61
2023/08/02 03:04:31;;;;;;;15.65;8.43;;;19.90;89.50;;;;;;5023737;28;20120;-60
2023/08/02 03:06:57;;;;;;;13.02;8.70;;;19.90;89.50;;;;;;5024349;28;20521;-61
2023/08/02 03:09:23;;;;;;;12.60;8.50;;;19.80;89.50;;;;;;5023187;28;20494;-61
2023/08/02 03:11:48;;;;;;;11.00;8.52;;;19.90;89.50;;;;;;5024374;28;20060;-60
2023/08/02 03:14:14;;;;;;;14.60;9.18;;;19.80;89.40;;;;;;5022478;28;20044;-60
2023/08/02 03:16:43;;;;;;;12.43;9.43;;;19.80;89.50;;;;;;5023005;28;20033;-61
2023/08/02 03:19:08;;;;;;;15.18;8.70;;;19.80;89.50;;;;;;5006728;28;20026;-59
2023/08/02 03:21:34;;;;;;;9.88;7.82;;;19.80;89.30;;;;;;5022643;28;20033;-61
2023/08/02 03:23:59;;;;;;;9.48;8.02;;;19.80;89.30;;;;;;5006468;28;20077;-61
2023/08/02 03:26:25;;;;;;;15.63;8.68;;;19.80;89.40;;;;;;5022740;28;20030;-61
2023/08/02 03:28:50;;;;;;;12.05;8.73;;;19.80;89.60;;;;;;5024143;28;20029;-61
2023/08/02 03:31:16;;;;;;;24.83;10.82;;;19.80;89.70;;;;;;5006369;28;20036;-60
2023/08/02 03:33:41;;;;;;;62.10;13.30;;;19.80;89.80;;;;;;5022613;28;20026;-60
2023/08/02 03:36:07;;;;;;;47.55;11.65;;;19.80;89.90;;;;;;5022790;28;20044;-61
2023/08/02 03:38:33;;;;;;;32.13;11.10;;;19.80;89.80;;;;;;5024099;28;20030;-60
2023/08/02 03:40:58;;;;;;;34.08;10.77;;;19.80;89.80;;;;;;5025905;28;20042;-60
2023/08/02 03:43:24;;;;;;;30.00;11.27;;;19.80;89.80;;;;;;5009822;28;20491;-60
2023/08/02 03:45:49;;;;;;;33.53;9.93;;;19.80;89.80;;;;;;5026208;28;20125;-61
2023/08/02 03:48:15;;;;;;;35.15;11.50;;;19.80;89.80;;;;;;5026340;28;20449;-60
2023/08/02 03:50:41;;;;;;;21.90;9.52;;;19.80;89.90;;;;;;5027648;28;20148;-61
2023/08/02 03:53:07;;;;;;;34.72;10.68;;;19.80;90.00;;;;;;5010079;28;20030;-61
2023/08/02 03:55:32;;;;;;;27.77;10.77;;;19.80;90.10;;;;;;5025930;28;20034;-61
2023/08/02 03:57:58;;;;;;;23.13;9.98;;;19.70;90.10;;;;;;5027367;28;20061;-61
2023/08/02 04:00:23;;;;;;;29.95;9.73;;;19.70;90.10;;;;;;5027203;28;20096;-60
2023/08/02 04:02:49;;;;;;;19.20;9.63;;;19.70;90.10;;;;;;5009570;28;20160;-60
2023/08/02 04:05:15;;;;;;;21.38;9.70;;;19.80;90.20;;;;;;5025685;28;20038;-60
2023/08/02 04:07:40;;;;;;;28.02;10.80;;;19.80;90.20;;;;;;5009698;28;20510;-61
2023/08/02 04:10:06;;;;;;;27.90;9.93;;;19.70;90.10;;;;;;5025776;28;20030;-61
2023/08/02 04:12:32;;;;;;;23.75;9.15;;;19.70;90.10;;;;;;5009516;28;20033;-60
2023/08/02 04:14:57;;;;;;;25.92;8.65;;;19.70;90.10;;;;;;5025764;28;20025;-60
2023/08/02 04:17:25;;;;;;;21.38;8.43;;;19.70;90.20;;;;;;5026967;28;20052;-60
2023/08/02 04:19:51;;;;;;;22.58;9.43;;;19.70;90.20;;;;;;5026870;28;20034;-60
2023/08/02 04:22:16;;;;;;;22.15;8.93;;;19.70;90.20;;;;;;5026922;28;20098;-60
2023/08/02 04:24:42;;;;;;;17.27;8.50;;;19.70;90.20;;;;;;5025693;28;20084;-61
2023/08/02 04:27:07;;;;;;;23.75;8.10;;;19.70;90.20;;;;;;5026990;28;20034;-60
2023/08/02 04:29:33;;;;;;;13.23;7.28;;;19.70;90.20;;;;;;5009253;28;20094;-60
2023/08/02 04:31:58;;;;;;;23.95;8.80;;;19.70;90.30;;;;;;5026858;28;20026;-60
2023/08/02 04:34:24;;;;;;;17.92;8.35;;;19.70;90.40;;;;;;5025601;28;20037;-60
2023/08/02 04:36:50;;;;;;;25.80;8.60;;;19.80;90.50;;;;;;5025366;28;20061;-60
2023/08/02 04:39:16;;;;;;;18.02;8.45;;;19.70;90.50;;;;;;5026830;28;20036;-60
2023/08/02 04:41:42;;;;;;;26.02;8.32;;;19.70;90.50;;;;;;5009163;28;20097;-60
2023/08/02 04:44:07;;;;;;;19.00;8.13;;;19.70;90.50;;;;;;5026664;28;20030;-61
2023/08/02 04:46:33;;;;;;;25.45;8.05;;;19.70;90.60;;;;;;5026655;28;20034;-60
2023/08/02 04:48:58;;;;;;;18.15;7.88;;;19.70;90.60;;;;;;5025194;28;20077;-61
2023/08/02 04:51:24;;;;;;;12.88;7.53;;;19.70;90.60;;;;;;5024907;28;20050;-61
2023/08/02 04:53:49;;;;;;;17.23;7.75;;;19.70;90.70;;;;;;5024016;28;20504;-61
2023/08/02 04:56:15;;;;;;;14.85;8.52;;;19.70;90.70;;;;;;5023989;28;20046;-61
2023/08/02 04:58:41;;;;;;;16.52;7.65;;;19.60;90.70;;;;;;5024267;28;20049;-61
2023/08/02 05:01:07;;;;;;;13.68;7.60;;;19.60;90.70;;;;;;5007295;28;20038;-60
2023/08/02 05:03:33;;;;;;;20.02;7.78;;;19.60;90.80;;;;;;5007854;28;20088;-61
2023/08/02 05:06:02;;;;;;;12.57;7.57;;;19.60;90.80;;;;;;5022434;28;20037;-60
2023/08/02 05:08:33;;;;;;;15.23;7.18;;;19.60;90.80;;;;;;5015526;28;20402;-61
2023/08/02 05:10:58;;;;;;;13.68;7.32;;;19.60;90.80;;;;;;4992008;28;20025;-60
2023/08/02 05:13:25;;;;;;;17.48;7.22;;;19.60;90.70;;;;;;5015025;28;20056;-60
2023/08/02 05:15:51;;;;;;;12.80;6.95;;;19.60;90.70;;;;;;5026018;28;20034;-61
2023/08/02 05:18:16;;;;;;;13.95;7.28;;;19.60;90.70;;;;;;5008428;28;20474;-61
2023/08/02 05:20:42;;;;;;;15.70;7.40;;;19.60;90.70;;;;;;5024471;28;20061;-61
2023/08/02 05:23:07;;;;;;;12.02;6.32;;;19.60;90.80;;;;;;5024573;28;20033;-60
2023/08/02 05:25:34;;;;;;;13.63;6.88;;;19.60;90.80;;;;;;5025796;28;20052;-60
2023/08/02 05:28:00;;;;;;;14.15;7.15;;;19.60;90.80;;;;;;5024534;28;20093;-60
2023/08/02 05:30:27;;;;;;;10.43;6.50;;;19.60;90.80;;;;;;5026175;28;20092;-61
2023/08/02 05:32:53;;;;;;;17.77;6.90;;;19.60;90.80;;;;;;5024291;28;20022;-60
2023/08/02 05:35:18;;;;;;;12.55;6.00;;;19.60;90.80;;;;;;5024358;28;20061;-61
2023/08/02 05:37:44;;;;;;;13.35;6.47;;;19.60;90.80;;;;;;5025490;28;20022;-60
2023/08/02 05:40:10;;;;;;;13.88;6.60;;;19.60;91.00;;;;;;5007794;28;20073;-60
2023/08/02 05:42:35;;;;;;;11.30;6.22;;;19.60;91.10;;;;;;5024173;28;20124;-60
2023/08/02 05:45:01;;;;;;;11.93;6.47;;;19.60;91.10;;;;;;5025304;28;20072;-61
2023/08/02 05:47:27;;;;;;;10.77;6.28;;;19.60;91.10;;;;;;5020066;28;20030;-60
2023/08/02 05:49:53;;;;;;;16.17;6.95;;;19.60;91.00;;;;;;5022154;28;20022;-60
2023/08/02 05:52:19;;;;;;;12.23;6.10;;;19.60;90.90;;;;;;5018805;28;20029;-60
2023/08/02 05:54:44;;;;;;;12.27;6.13;;;19.60;91.30;;;;;;5023867;28;20053;-61
2023/08/02 05:57:10;;;;;;;8.75;6.03;;;19.60;91.10;;;;;;5023726;28;20369;-61
2023/08/02 05:59:37;;;;;;;12.18;6.47;;;19.60;91.10;;;;;;5040084;28;20470;-61
2023/08/02 06:02:04;;;;;;;10.20;5.57;;;19.60;91.20;;;;;;5025257;28;20045;-61
2023/08/02 06:04:29;;;;;;;10.07;5.10;;;19.60;91.40;;;;;;5024004;28;20033;-61
2023/08/02 06:06:55;;;;;;;12.43;5.50;;;19.60;91.50;;;;;;5023668;28;20030;-61
2023/08/02 06:09:20;;;;;;;9.05;5.80;;;19.60;91.50;;;;;;5023183;28;20048;-61
2023/08/02 06:11:46;;;;;;;13.45;5.78;;;19.60;91.40;;;;;;5026320;28;20073;-61
2023/08/02 06:14:11;;;;;;;6.65;4.95;;;19.60;91.50;;;;;;5018844;28;20088;-61
2023/08/02 06:16:37;;;;;;;15.02;5.68;;;19.50;91.50;;;;;;5004091;28;20057;-61
2023/08/02 06:19:02;;;;;;;12.27;5.65;;;19.60;91.70;;;;;;4986006;28;20526;-60
2023/08/02 06:21:28;;;;;;;6.30;4.80;;;19.60;91.80;;;;;;5005067;28;20034;-60
2023/08/02 06:23:53;;;;;;;8.00;4.97;;;19.60;91.90;;;;;;5004726;28;20341;-60
2023/08/02 06:26:19;;;;;;;8.63;4.88;;;19.60;92.00;;;;;;5005506;28;20035;-61
2023/08/02 06:28:44;;;;;;;6.30;5.25;;;19.60;92.00;;;;;;4987982;28;20022;-60
2023/08/02 06:31:10;;;;;;;10.60;4.78;;;19.60;92.10;;;;;;4987576;28;20089;-61
2023/08/02 06:33:36;;;;;;;6.70;4.50;;;19.60;92.20;;;;;;5005326;28;20506;-61
2023/08/02 06:36:01;;;;;;;6.80;4.45;;;19.60;92.40;;;;;;5003666;28;20042;-62
2023/08/02 06:38:27;;;;;;;6.03;4.35;;;19.60;92.60;;;;;;4987437;28;20080;-61
2023/08/02 06:40:53;;;;;;;6.53;4.20;;;19.60;93.00;;;;;;4971278;28;20030;-61
2023/08/02 06:43:18;;;;;;;4.68;4.20;;;19.60;92.90;;;;;;5004878;28;20023;-61
2023/08/02 06:45:47;;;;;;;7.05;4.57;;;19.60;92.80;;;;;;5003342;28;20030;-61
2023/08/02 06:48:13;;;;;;;6.75;4.35;;;19.60;92.90;;;;;;5003593;28;20022;-61
2023/08/02 06:50:39;;;;;;;8.63;4.05;;;19.50;93.00;;;;;;5003312;28;20034;-61
2023/08/02 06:53:05;;;;;;;5.57;3.80;;;19.50;93.10;;;;;;5003389;28;20029;-61
2023/08/02 06:55:31;;;;;;;6.68;4.00;;;19.50;93.10;;;;;;5006793;28;20022;-61
2023/08/02 06:57:56;;;;;;;5.32;3.97;;;19.50;93.10;;;;;;5022021;28;20434;-61
2023/08/02 07:00:22;;;;;;;8.55;4.25;;;19.50;93.10;;;;;;5022039;28;20344;-61
2023/08/02 07:02:50;;;;;;;6.97;4.45;;;19.50;93.20;;;;;;5022036;28;20030;-61
2023/08/02 07:05:16;;;;;;;4.75;3.58;;;19.50;93.10;;;;;;5021235;28;20121;-61
2023/08/02 07:07:41;;;;;;;5.32;3.92;;;19.50;93.20;;;;;;5004484;28;20022;-61
2023/08/02 07:10:07;;;;;;;6.30;3.17;;;19.50;93.20;;;;;;5022276;28;20090;-61
2023/08/02 07:12:32;;;;;;;8.80;3.50;;;19.50;93.20;;;;;;5022112;28;20048;-60
2023/08/02 07:14:58;;;;;;;9.50;3.78;;;19.50;93.10;;;;;;5023916;28;20034;-60
2023/08/02 07:17:23;;;;;;;7.03;3.55;;;19.50;93.20;;;;;;5026429;28;20049;-61
2023/08/02 07:19:49;;;;;;;5.00;3.35;;;19.50;93.20;;;;;;5028200;28;20089;-61
2023/08/02 07:22:17;;;;;;;6.40;3.38;;;19.60;93.20;;;;;;5026928;28;20075;-61
2023/08/02 07:24:43;;;;;;;7.00;3.70;;;19.60;93.20;;;;;;5010934;28;20068;-60
2023/08/02 07:27:10;;;;;;;4.72;3.13;;;19.60;93.20;;;;;;5028350;28;20025;-61
2023/08/02 07:29:35;;;;;;;7.03;3.75;;;19.60;93.30;;;;;;5043017;28;20062;-60
2023/08/02 07:32:01;;;;;;;6.22;3.10;;;19.60;93.30;;;;;;5026543;28;20080;-60
2023/08/02 07:34:26;;;;;;;7.18;3.03;;;19.60;93.40;;;;;;5026420;28;20048;-61
2023/08/02 07:36:52;;;;;;;9.50;3.30;;;19.60;93.40;;;;;;5026556;28;20041;-61
2023/08/02 07:39:17;;;;;;;7.50;3.88;;;19.60;93.50;;;;;;5027900;28;20030;-61
2023/08/02 07:41:43;;;;;;;5.85;3.42;;;19.60;93.60;;;;;;5026414;28;20529;-60
2023/08/02 07:44:09;;;;;;;4.00;2.78;;;19.60;93.60;;;;;;5025248;28;20548;-61
2023/08/02 07:46:34;;;;;;;7.03;3.13;;;19.60;93.60;;;;;;5041261;28;20374;-61
2023/08/02 07:49:00;;;;;;;4.07;2.88;;;19.60;93.50;;;;;;5027095;28;20026;-61
2023/08/02 07:51:26;;;;;;;4.63;2.92;;;19.60;93.50;;;;;;5026308;28;20367;-60
2023/08/02 07:53:51;;;;;;;6.72;2.85;;;19.60;93.50;;;;;;5026165;28;20033;-61
2023/08/02 07:56:17;;;;;;;8.80;2.97;;;19.70;93.60;;;;;;5019524;28;20458;-61
2023/08/02 07:58:42;;;;;;;11.93;3.80;;;19.70;93.60;;;;;;5027491;28;20030;-61
2023/08/02 08:01:08;;;;;;;6.50;2.97;;;19.70;93.80;;;;;;5025880;28;20485;-61
2023/08/02 08:03:34;;;;;;;10.73;3.00;;;19.70;93.70;;;;;;5020276;28;20034;-61
2023/08/02 08:06:00;;;;;;;9.00;3.40;;;19.80;93.90;;;;;;5040904;28;20042;-61
2023/08/02 08:08:26;;;;;;;18.70;3.58;;;19.80;93.90;;;;;;5007702;28;20454;-60
2023/08/02 08:10:51;;;;;;;13.55;4.00;;;19.80;93.80;;;;;;5025934;28;20030;-60
2023/08/02 08:13:17;;;;;;;55.22;6.25;;;19.90;93.70;;;;;;5024989;28;20026;-60
2023/08/02 08:15:43;;;;;;;67.97;6.65;;;19.90;93.60;;;;;;5025546;28;20026;-61
2023/08/02 08:18:09;;;;;;;53.95;6.28;;;19.90;93.50;;;;;;5024077;28;20053;-61
2023/08/02 08:20:34;;;;;;;42.70;6.03;;;19.90;93.70;;;;;;5024722;28;20037;-61
2023/08/02 08:23:00;;;;;;;31.55;5.28;;;20.00;93.60;;;;;;5016627;28;20237;-60
2023/08/02 08:25:25;;;;;;;26.75;5.38;;;20.00;93.50;;;;;;5024582;28;20034;-61
2023/08/02 08:27:51;;;;;;;32.40;5.90;;;20.00;93.50;;;;;;5023524;28;20026;-61
2023/08/02 08:30:17;;;;;;;35.88;5.95;;;20.00;93.60;;;;;;5026235;28;20072;-61
2023/08/02 08:32:42;;;;;;;35.78;5.47;;;20.10;93.60;;;;;;5024563;28;20022;-61
2023/08/02 08:35:09;;;;;;;33.47;5.50;;;20.20;93.80;;;;;;5026591;28;20041;-59
2023/08/02 08:37:35;;;;;;;34.63;6.30;;;20.10;93.80;;;;;;5025341;28;20036;-61
2023/08/02 08:40:00;;;;;;;26.25;5.88;;;20.20;94.00;;;;;;4988526;28;20057;-60
2023/08/02 08:42:26;;;;;;;31.90;6.13;;;20.20;94.10;;;;;;5005655;28;20467;-61
2023/08/02 08:44:51;;;;;;;38.35;6.93;;;20.30;94.10;;;;;;4989372;28;20459;-60
2023/08/02 08:47:17;;;;;;;33.47;6.07;;;20.30;94.00;;;;;;4990006;28;20064;-61
2023/08/02 08:49:46;;;;;;;33.17;6.15;;;20.30;94.10;;;;;;5024927;28;20033;-61
2023/08/02 08:52:12;;;;;;;33.05;6.05;;;20.40;94.10;;;;;;5025252;28;20030;-60
2023/08/02 08:54:37;;;;;;;33.70;5.40;;;20.40;94.20;;;;;;5007636;28;20036;-61
2023/08/02 08:57:03;;;;;;;41.22;6.20;;;20.40;94.50;;;;;;5004051;28;20044;-61
2023/08/02 08:59:29;;;;;;;29.48;6.47;;;20.40;94.50;;;;;;5024557;28;20025;-60
2023/08/02 09:01:54;;;;;;;35.08;6.38;;;20.50;94.60;;;;;;5007843;28;20046;-61
2023/08/02 09:04:20;;;;;;;41.50;6.28;;;20.50;94.60;;;;;;4994546;28;20038;-61
2023/08/02 09:06:45;;;;;;;29.73;6.35;;;20.50;94.70;;;;;;5019330;28;20037;-60
2023/08/02 09:09:14;;;;;;;50.10;7.38;;;20.50;94.80;;;;;;5037599;28;20030;-61
2023/08/02 09:11:41;;;;;;;40.88;6.40;;;20.60;94.80;;;;;;5009668;28;20026;-61
2023/08/02 09:14:15;;;;;;;32.72;5.88;;;20.60;94.70;;;;;;5024734;28;20085;-61
2023/08/02 09:16:58;;;;;;;33.85;6.90;;;20.60;94.70;;;;;;5040239;28;20107;-61
2023/08/02 09:19:27;;;;;;;36.92;7.28;;;20.70;94.70;;;;;;5040623;28;20129;-60
2023/08/02 09:22:11;;;;;;;48.55;7.50;;;20.70;94.70;;;;;;5011473;28;20041;-61
2023/08/02 09:24:38;;;;;;;40.60;7.50;;;20.70;94.80;;;;;;5011374;28;20025;-61
2023/08/02 09:27:05;;;;;;;50.65;6.97;;;20.70;94.70;;;;;;5024392;28;20030;-61
2023/08/02 09:29:50;;;;;;;39.58;7.55;;;20.70;94.70;;;;;;5023535;28;20021;-61
2023/08/02 09:32:16;;;;;;;36.50;7.80;;;20.80;94.60;;;;;;5004817;28;20089;-60
2023/08/02 09:34:43;;;;;;;55.15;8.20;;;20.80;94.60;;;;;;5022957;28;20034;-61
2023/08/02 09:37:11;;;;;;;77.00;11.30;;;20.80;94.60;;;;;;5014098;28;20054;-61
2023/08/02 09:39:37;;;;;;;80.03;11.27;;;20.80;94.50;;;;;;5004397;28;20031;-60
2023/08/02 09:42:15;;;;;;;69.30;10.07;;;20.90;94.80;;;;;;5021404;28;20037;-60
2023/08/02 09:44:41;;;;;;;61.20;10.18;;;20.90;94.50;;;;;;5024630;28;20026;-60
2023/08/02 09:47:10;;;;;;;77.65;10.82;;;21.00;94.40;;;;;;5009796;28;20041;-61
2023/08/02 09:49:36;;;;;;;77.63;10.95;;;21.10;94.40;;;;;;5004450;28;20048;-60
2023/08/02 09:52:02;;;;;;;89.15;12.38;;;21.10;94.20;;;;;;5023083;28;20030;-60
2023/08/02 09:54:29;;;;;;;77.90;11.30;;;21.20;94.10;;;;;;5021846;28;20061;-61
2023/08/02 09:56:54;;;;;;;66.57;10.77;;;21.20;94.00;;;;;;5020686;28;20030;-61
2023/08/02 09:59:20;;;;;;;71.38;11.05;;;21.30;93.90;;;;;;5015430;28;20034;-60
2023/08/02 10:01:46;;;;;;;73.25;11.38;;;21.30;93.80;;;;;;5014114;28;20040;-60
2023/08/02 10:04:12;;;;;;;67.10;10.15;;;21.40;93.90;;;;;;4991382;28;20157;-60
2023/08/02 10:06:44;;;;;;;65.57;10.02;;;21.50;93.70;;;;;;4982615;28;20034;-60
2023/08/02 10:09:11;;;;;;;91.00;12.38;;;21.50;93.60;;;;;;4994918;28;20115;-61
2023/08/02 10:11:45;;;;;;;100.60;11.73;;;21.60;93.50;;;;;;4993000;28;20038;-61
2023/08/02 10:14:10;;;;;;;83.22;11.73;;;21.60;93.30;;;;;;5012555;28;20026;-60
2023/08/02 10:16:37;;;;;;;71.22;10.60;;;21.60;93.20;;;;;;5008303;28;20038;-61
2023/08/02 10:19:03;;;;;;;64.15;10.57;;;21.70;93.20;;;;;;5011847;28;20112;-60
2023/08/02 10:21:31;;;;;;;74.30;11.30;;;21.70;93.00;;;;;;5011393;28;20052;-60
2023/08/02 10:23:57;;;;;;;74.32;10.82;;;21.80;93.00;;;;;;5013078;28;20042;-60
2023/08/02 10:26:23;;;;;;;52.60;9.63;;;21.80;92.80;;;;;;4996768;28;20026;-60
2023/08/02 10:28:48;;;;;;;69.53;10.93;;;21.80;92.60;;;;;;4995830;28;20076;-60
2023/08/02 10:31:14;;;;;;;81.25;12.45;;;21.90;92.40;;;;;;5010183;28;20025;-60
2023/08/02 10:33:39;;;;;;;83.32;12.60;;;21.90;92.30;;;;;;5013938;28;20029;-61
2023/08/02 10:36:06;;;;;;;79.65;12.05;;;22.00;92.20;;;;;;5021105;28;20034;-60
2023/08/02 10:38:38;;;;;;;93.72;12.80;;;22.00;92.10;;;;;;5023032;28;20026;-60
2023/08/02 10:41:04;;;;;;;95.32;13.70;;;22.00;92.30;;;;;;5023027;28;20105;-60
2023/08/02 10:43:29;;;;;;;100.88;11.90;;;22.10;92.10;;;;;;5011049;28;20033;-61
2023/08/02 10:46:14;;;;;;;71.57;9.93;;;22.10;92.00;;;;;;5011131;28;20045;-60
2023/08/02 10:48:39;;;;;;;76.72;10.82;;;22.20;92.10;;;;;;5010863;28;20030;-60
2023/08/02 10:51:05;;;;;;;98.30;12.80;;;22.30;92.00;;;;;;5010604;28;20394;-61
2023/08/02 10:53:31;;;;;;;75.90;11.85;;;22.30;92.00;;;;;;5005867;28;21335;-60
2023/08/02 10:56:04;;;;;;;86.25;12.32;;;22.40;91.90;;;;;;5011179;28;20034;-60
2023/08/02 10:58:52;;;;;;;103.75;13.50;;;22.40;91.90;;;;;;5009931;28;20025;-61
2023/08/02 11:01:18;;;;;;;81.10;12.90;;;22.50;91.70;;;;;;5010421;28;20053;-60
2023/08/02 11:03:44;;;;;;;68.70;11.15;;;22.60;91.70;;;;;;5008424;28;20046;-60
2023/08/02 11:06:26;;;;;;;143.48;17.52;;;22.70;91.50;;;;;;4997530;28;20030;-60
2023/08/02 11:08:51;;;;;;;98.95;13.48;;;22.70;91.30;;;;;;5018026;28;20054;-60
2023/08/02 11:11:27;;;;;;;105.53;13.32;;;22.80;91.60;;;;;;5016603;28;20037;-60
2023/08/02 11:13:53;;;;;;;78.43;11.50;;;22.90;91.20;;;;;;4998414;28;20022;-61
2023/08/02 11:16:18;;;;;;;71.32;10.02;;;22.90;91.10;;;;;;5032326;28;20487;-60
2023/08/02 11:18:44;;;;;;;85.80;12.20;;;23.00;90.90;;;;;;5005559;28;20034;-60
2023/08/02 11:21:10;;;;;;;91.50;13.90;;;23.10;90.60;;;;;;5003279;28;20038;-60
2023/08/02 11:23:36;;;;;;;92.13;12.95;;;23.20;90.40;;;;;;5018992;28;20092;-60
2023/08/02 11:26:08;;;;;;;73.97;12.27;;;23.20;90.30;;;;;;5037219;28;20037;-60
2023/08/02 11:28:53;;;;;;;98.03;13.18;;;23.30;90.00;;;;;;5020160;28;20052;-60
2023/08/02 11:31:21;;;;;;;79.35;12.35;;;23.40;89.80;;;;;;5020277;28;20027;-60
2023/08/02 11:33:47;;;;;;;81.95;12.63;;;23.50;89.70;;;;;;5002197;28;20466;-60
2023/08/02 11:36:12;;;;;;;93.55;13.13;;;23.50;89.40;;;;;;5020244;28;20041;-61
2023/08/02 11:38:38;;;;;;;86.60;13.32;;;23.60;89.30;;;;;;5005146;28;20044;-60
2023/08/02 11:41:17;;;;;;;95.47;11.63;;;23.60;89.10;;;;;;5021194;28;20514;-60
2023/08/02 11:43:43;;;;;;;88.90;13.15;;;23.70;88.70;;;;;;5024991;28;20057;-60
2023/08/02 11:46:27;;;;;;;106.05;13.77;;;23.80;88.40;;;;;;4998867;28;20057;-60
2023/08/02 11:48:53;;;;;;;102.22;14.00;;;23.90;88.20;;;;;;5011573;28;20025;-60
2023/08/02 11:51:19;;;;;;;89.25;11.95;;;23.90;87.80;;;;;;5019436;28;20041;-59
2023/08/02 11:53:49;;;;;;;82.47;12.07;;;24.00;87.30;;;;;;5000066;28;20048;-61
2023/08/02 11:56:15;;;;;;;87.28;11.05;;;24.00;86.70;;;;;;5019951;28;20077;-61
2023/08/02 11:58:42;;;;;;;97.68;14.05;;;24.10;86.00;;;;;;5021797;28;20029;-60
2023/08/02 12:01:07;;;;;;;88.47;13.23;;;24.10;86.00;;;;;;5024851;28;20419;-60
2023/08/02 12:03:33;;;;;;;83.00;12.23;;;24.20;85.70;;;;;;5009210;28;20099;-60
2023/08/02 12:05:59;;;;;;;80.35;12.23;;;24.20;85.40;;;;;;5025621;28;20030;-60
2023/08/02 12:08:25;;;;;;;53.97;9.77;;;24.20;84.90;;;;;;5041318;28;20030;-60
2023/08/02 12:10:51;;;;;;;81.60;10.75;;;24.30;84.80;;;;;;5025595;28;20037;-61
2023/08/02 12:13:17;;;;;;;66.13;10.93;;;24.30;84.40;;;;;;5006271;28;20190;-60
2023/08/02 12:16:01;;;;;;;49.60;9.20;;;24.40;84.30;;;;;;5033471;28;20060;-60
2023/08/02 12:18:27;;;;;;;59.97;9.40;;;24.40;84.20;;;;;;5023520;28;20037;-60
2023/08/02 12:20:52;;;;;;;56.35;9.07;;;24.40;83.80;;;;;;5025943;28;20030;-60
2023/08/02 12:23:34;;;;;;;64.70;9.90;;;24.50;84.20;;;;;;5022502;28;20070;-60
2023/08/02 12:25:59;;;;;;;64.30;10.10;;;24.50;83.60;;;;;;5024867;28;20149;-60
2023/08/02 12:28:25;;;;;;;63.92;11.88;;;24.60;83.60;;;;;;5024998;28;20030;-60
2023/08/02 12:31:03;;;;;;;78.07;11.50;;;24.70;83.50;;;;;;5023186;28;20030;-60
2023/08/02 12:33:29;;;;;;;80.78;11.35;;;24.80;83.40;;;;;;5026708;28;20513;-60
2023/08/02 12:35:55;;;;;;;83.82;11.15;;;24.80;83.00;;;;;;5032622;28;20041;-60